Time;durP1;ratioP1;P1;durP2;ratioP2;P2;SDS_P1;SDS_P2;PMS_P1;PMS_P2;Temp;Humidity;BMP_temperature;BMP_pressure;BME280_temperature;BME280_humidity;BME280_pressure;Samples;Min_cycle;Max_cycle;Signal;HPM_P1;HPM_P2
2021/11/30 00:01:30;;;;;;;1.50;0.80;;;18.10;44.10;;;;;;5087916;28;20045;-81
2021/11/30 00:03:58;;;;;;;1.02;0.70;;;18.10;44.30;;;;;;5085576;28;20055;-79
2021/11/30 00:06:25;;;;;;;1.13;0.50;;;18.10;44.20;;;;;;5069873;28;20053;-81
2021/11/30 00:08:57;;;;;;;0.70;0.70;;;18.10;44.40;;;;;;5086587;28;20067;-82
2021/11/30 00:11:23;;;;;;;0.52;0.52;;;18.00;44.40;;;;;;5098979;28;20043;-80
2021/11/30 00:13:49;;;;;;;1.52;0.85;;;18.00;44.50;;;;;;5093196;28;20127;-80
2021/11/30 00:16:16;;;;;;;1.00;0.75;;;18.00;44.40;;;;;;5090042;28;20043;-81
2021/11/30 00:18:42;;;;;;;0.73;0.60;;;18.00;44.40;;;;;;5090161;28;20101;-80
2021/11/30 00:21:10;;;;;;;1.48;0.80;;;18.00;44.30;;;;;;5088937;28;20395;-81
2021/11/30 00:23:37;;;;;;;1.60;0.80;;;18.00;44.40;;;;;;5068392;28;20052;-81
2021/11/30 00:26:05;;;;;;;1.13;0.80;;;18.00;44.40;;;;;;5088231;28;20076;-80
2021/11/30 00:28:30;;;;;;;3.75;0.85;;;17.90;44.40;;;;;;5090027;28;20044;-80
2021/11/30 00:30:56;;;;;;;1.17;0.90;;;17.90;44.40;;;;;;5104580;28;20213;-80
2021/11/30 00:33:22;;;;;;;0.80;0.80;;;17.90;44.40;;;;;;5071459;28;20052;-80
2021/11/30 00:35:48;;;;;;;2.10;0.52;;;17.90;44.40;;;;;;5088116;28;20067;-79
2021/11/30 00:38:16;;;;;;;0.98;0.50;;;17.90;44.40;;;;;;5088788;28;20035;-80
2021/11/30 00:40:43;;;;;;;2.38;0.40;;;17.80;44.30;;;;;;5086233;28;20051;-80
2021/11/30 00:43:11;;;;;;;1.88;1.30;;;17.80;44.40;;;;;;5084797;28;20098;-79
2021/11/30 00:45:52;;;;;;;1.38;0.82;;;17.80;44.40;;;;;;5096920;28;20152;-80
2021/11/30 00:48:21;;;;;;;0.95;0.82;;;17.80;44.30;;;;;;5069716;28;20080;-80
2021/11/30 00:50:49;;;;;;;0.95;0.75;;;17.80;44.40;;;;;;5069673;28;20048;-80
2021/11/30 00:53:15;;;;;;;1.55;0.57;;;17.80;44.30;;;;;;5084543;28;20048;-80
2021/11/30 00:55:41;;;;;;;0.65;0.60;;;17.70;44.30;;;;;;5070843;28;20048;-80
2021/11/30 00:58:08;;;;;;;0.50;0.43;;;17.70;44.40;;;;;;5072742;28;20066;-80
2021/11/30 01:00:35;;;;;;;0.77;0.68;;;17.60;44.40;;;;;;5055001;28;20083;-80
2021/11/30 01:25:08;;;;;;;2.72;0.60;;;17.60;44.10;;;;;;5274256;22;20263;-79
2021/11/30 01:27:35;;;;;;;0.95;0.90;;;17.60;43.90;;;;;;5518754;22;20156;-75
2021/11/30 01:30:00;;;;;;;1.48;0.50;;;17.60;43.70;;;;;;5033184;28;20068;-72
2021/11/30 01:32:26;;;;;;;2.15;0.77;;;17.60;43.60;;;;;;5019735;28;20041;-72
2021/11/30 01:34:52;;;;;;;1.00;0.47;;;17.60;43.40;;;;;;5030813;28;20509;-73
2021/11/30 01:37:18;;;;;;;0.68;0.50;;;17.60;43.40;;;;;;5027723;28;20045;-73
2021/11/30 01:39:46;;;;;;;0.60;0.60;;;17.50;43.30;;;;;;5014363;28;20048;-79
2021/11/30 01:42:14;;;;;;;1.23;0.43;;;17.50;43.30;;;;;;5031793;28;20103;-73
2021/11/30 01:47:24;;;;;;;1.05;0.55;;;17.50;44.00;;;;;;5032164;28;20056;-74
2021/11/30 01:49:51;;;;;;;4.20;0.80;;;17.50;43.70;;;;;;5030819;28;20140;-74
2021/11/30 01:52:17;;;;;;;2.08;0.40;;;17.50;43.70;;;;;;5021809;28;20064;-75
2021/11/30 01:54:44;;;;;;;1.10;0.50;;;17.40;43.60;;;;;;5029161;28;20049;-75
2021/11/30 01:57:12;;;;;;;1.73;0.82;;;17.40;43.70;;;;;;5032022;28;20080;-75
2021/11/30 01:59:39;;;;;;;4.22;0.80;;;17.30;43.70;;;;;;5032236;28;20107;-75
2021/11/30 02:02:05;;;;;;;1.90;0.70;;;17.30;43.70;;;;;;5008400;28;20061;-75
2021/11/30 02:04:31;;;;;;;3.35;0.52;;;17.30;44.70;;;;;;5031256;28;20042;-75
2021/11/30 02:06:57;;;;;;;1.98;0.85;;;17.30;43.70;;;;;;5032185;28;20049;-74
2021/11/30 02:09:23;;;;;;;1.25;0.70;;;17.30;43.60;;;;;;5031902;28;20049;-75
2021/11/30 02:11:50;;;;;;;2.67;0.60;;;17.30;43.50;;;;;;5030957;28;20051;-76
2021/11/30 02:14:16;;;;;;;1.40;0.68;;;17.30;43.50;;;;;;5013615;28;20693;-75
2021/11/30 02:16:42;;;;;;;0.98;0.40;;;17.30;43.40;;;;;;5029744;28;20269;-75
2021/11/30 02:19:08;;;;;;;0.95;0.77;;;17.30;43.40;;;;;;5018910;28;20046;-73
2021/11/30 02:21:37;;;;;;;2.95;0.98;;;17.30;43.20;;;;;;5032009;28;20041;-75
2021/11/30 02:24:04;;;;;;;1.08;0.63;;;17.30;43.20;;;;;;5031770;28;20041;-75
2021/11/30 02:26:32;;;;;;;0.70;0.52;;;17.30;43.40;;;;;;5031437;28;20118;-75
2021/11/30 02:28:58;;;;;;;1.45;0.60;;;17.30;43.20;;;;;;5017816;28;20067;-75
2021/11/30 02:31:38;;;;;;;6.20;0.70;;;17.20;43.30;;;;;;5013571;28;20057;-75
2021/11/30 02:34:04;;;;;;;;;;;17.30;43.20;;;;;;5016978;28;20041;-76
2021/11/30 02:39:12;;;;;;;1.05;0.50;;;17.20;43.20;;;;;;5031641;28;20060;-72
2021/11/30 02:41:39;;;;;;;1.30;0.68;;;17.20;43.20;;;;;;5029966;28;20068;-75
2021/11/30 02:44:06;;;;;;;1.95;0.80;;;17.20;43.20;;;;;;5031550;28;20081;-75
2021/11/30 02:46:47;;;;;;;0.60;0.55;;;17.20;43.20;;;;;;5031138;28;20684;-75
2021/11/30 02:49:15;;;;;;;0.70;0.47;;;17.20;44.30;;;;;;5031246;28;20107;-73
2021/11/30 02:51:46;;;;;;;1.17;0.50;;;17.20;43.30;;;;;;5031434;28;20152;-75
2021/11/30 02:54:14;;;;;;;0.40;0.40;;;17.10;43.10;;;;;;5029388;28;20064;-73
2021/11/30 02:56:54;;;;;;;0.40;0.32;;;17.10;44.40;;;;;;5019065;28;20103;-75
2021/11/30 02:59:21;;;;;;;1.65;0.68;;;17.10;43.30;;;;;;5030878;28;20107;-76
2021/11/30 03:02:02;;;;;;;0.60;0.50;;;17.10;43.20;;;;;;5031009;28;20493;-76
2021/11/30 03:04:28;;;;;;;1.17;0.60;;;17.10;43.20;;;;;;5030760;28;20053;-75
2021/11/30 03:06:56;;;;;;;0.50;0.50;;;17.10;43.20;;;;;;5028003;28;20434;-75
2021/11/30 03:09:22;;;;;;;1.17;0.60;;;17.10;43.20;;;;;;5030750;28;20053;-75
2021/11/30 03:11:48;;;;;;;2.05;0.63;;;17.00;43.20;;;;;;5030865;28;20136;-76
2021/11/30 03:14:14;;;;;;;0.52;0.50;;;17.00;43.30;;;;;;5030123;28;20168;-74
2021/11/30 03:16:41;;;;;;;1.65;0.60;;;17.00;43.50;;;;;;5030920;28;20497;-76
2021/11/30 03:19:08;;;;;;;2.22;0.65;;;17.00;43.40;;;;;;5019874;28;20050;-76
2021/11/30 03:21:34;;;;;;;0.90;0.70;;;17.00;43.40;;;;;;5026018;28;20124;-75
2021/11/30 03:24:00;;;;;;;1.45;0.70;;;17.00;43.40;;;;;;5030899;28;20117;-75
2021/11/30 03:26:26;;;;;;;0.70;0.52;;;17.00;43.30;;;;;;5030373;28;20167;-74
2021/11/30 03:28:51;;;;;;;0.90;0.57;;;17.00;43.40;;;;;;5030731;28;20060;-77
2021/11/30 03:34:07;;;;;;;0.40;0.40;;;17.00;43.40;;;;;;5013365;28;20136;-76
2021/11/30 03:36:34;;;;;;;0.50;0.50;;;16.90;43.40;;;;;;5045713;28;20056;-76
2021/11/30 03:39:02;;;;;;;0.32;0.32;;;16.90;43.50;;;;;;5030559;28;20049;-77
2021/11/30 03:41:31;;;;;;;0.88;0.50;;;16.90;43.60;;;;;;5030217;28;20045;-76
2021/11/30 03:43:58;;;;;;;0.47;0.47;;;16.90;43.40;;;;;;5019535;28;20639;-76
2021/11/30 03:46:23;;;;;;;1.30;0.70;;;16.90;43.40;;;;;;5030102;28;20041;-77
2021/11/30 03:48:49;;;;;;;1.05;0.57;;;16.90;43.30;;;;;;5030628;28;20099;-75
2021/11/30 03:51:15;;;;;;;0.90;0.40;;;16.90;43.40;;;;;;5030213;28;20041;-76
2021/11/30 03:53:41;;;;;;;0.80;0.47;;;16.90;43.30;;;;;;5029881;28;20041;-75
2021/11/30 03:56:07;;;;;;;0.38;0.35;;;16.90;43.40;;;;;;5024355;28;20049;-76
2021/11/30 03:58:33;;;;;;;0.43;0.40;;;16.90;44.50;;;;;;5029985;28;20414;-76
2021/11/30 04:00:59;;;;;;;0.50;0.47;;;16.90;43.40;;;;;;5030118;28;20128;-76
2021/11/30 04:03:28;;;;;;;0.70;0.35;;;16.90;43.40;;;;;;5021738;28;20052;-75
2021/11/30 04:05:54;;;;;;;0.68;0.40;;;16.90;43.30;;;;;;5023440;28;20460;-75
2021/11/30 04:08:20;;;;;;;0.73;0.43;;;16.90;43.40;;;;;;5027669;28;20038;-73
2021/11/30 04:10:47;;;;;;;0.43;0.30;;;16.80;43.40;;;;;;5029968;28;20486;-77
2021/11/30 04:13:13;;;;;;;1.15;0.50;;;16.80;43.50;;;;;;5012235;28;20059;-75
2021/11/30 04:15:39;;;;;;;0.25;0.25;;;16.80;43.50;;;;;;5029576;28;20660;-76
2021/11/30 04:18:04;;;;;;;0.30;0.30;;;16.80;43.50;;;;;;5029759;28;20103;-77
2021/11/30 04:20:30;;;;;;;1.98;0.45;;;16.80;43.50;;;;;;5029444;28;20045;-75
2021/11/30 04:22:56;;;;;;;0.40;0.40;;;16.80;43.60;;;;;;5028039;28;20159;-76
2021/11/30 04:25:22;;;;;;;1.13;0.43;;;16.80;43.70;;;;;;5029725;28;20509;-72
2021/11/30 04:27:47;;;;;;;0.55;0.32;;;16.80;43.40;;;;;;5029636;28;20147;-75
2021/11/30 04:30:14;;;;;;;0.40;0.38;;;16.80;43.50;;;;;;5030058;28;20045;-74
2021/11/30 04:32:40;;;;;;;0.80;0.30;;;16.80;43.50;;;;;;5018416;28;20121;-77
2021/11/30 04:35:07;;;;;;;0.93;0.40;;;16.80;43.40;;;;;;5021520;28;20128;-75
2021/11/30 04:37:33;;;;;;;0.30;0.28;;;16.80;43.50;;;;;;5011226;28;20909;-76
2021/11/30 04:39:58;;;;;;;0.35;0.35;;;16.80;43.60;;;;;;5012354;28;20049;-76
2021/11/30 04:42:27;;;;;;;0.28;0.28;;;16.70;43.50;;;;;;5027142;28;20117;-76
2021/11/30 04:47:34;;;;;;;1.00;0.40;;;16.80;43.50;;;;;;5028922;28;20049;-75
2021/11/30 04:50:23;;;;;;;0.95;0.40;;;16.70;43.50;;;;;;5029616;28;20429;-76
2021/11/30 04:52:49;;;;;;;0.40;0.40;;;16.70;43.60;;;;;;5027526;28;20239;-76
2021/11/30 04:55:21;;;;;;;0.75;0.30;;;16.70;43.60;;;;;;5028846;28;20049;-76
2021/11/30 04:57:55;;;;;;;0.60;0.40;;;16.70;43.60;;;;;;5021211;28;20076;-76
2021/11/30 05:00:21;;;;;;;0.50;0.30;;;16.70;43.80;;;;;;5022646;28;20042;-76
2021/11/30 05:02:48;;;;;;;0.30;0.30;;;16.70;43.60;;;;;;5022832;28;20045;-76
2021/11/30 05:05:14;;;;;;;0.73;0.28;;;16.70;43.60;;;;;;5014159;28;20046;-77
2021/11/30 05:07:42;;;;;;;0.70;0.40;;;16.70;43.50;;;;;;5028878;28;20041;-76
2021/11/30 05:10:09;;;;;;;0.95;0.50;;;16.70;43.30;;;;;;5015431;28;20369;-77
2021/11/30 05:12:35;;;;;;;0.40;0.40;;;16.70;43.40;;;;;;5028874;28;20041;-77
2021/11/30 05:15:01;;;;;;;1.05;0.50;;;16.70;43.40;;;;;;5029221;28;20060;-78
2021/11/30 05:17:27;;;;;;;0.75;0.40;;;16.70;43.50;;;;;;5028933;28;20050;-77
2021/11/30 05:19:53;;;;;;;0.43;0.40;;;16.70;43.50;;;;;;5027225;28;20045;-78
2021/11/30 05:22:18;;;;;;;1.60;0.85;;;16.70;43.30;;;;;;5029337;28;20049;-78
2021/11/30 05:24:44;;;;;;;1.05;0.60;;;16.60;43.20;;;;;;5028773;28;20041;-77
2021/11/30 05:27:10;;;;;;;0.80;0.50;;;16.60;43.30;;;;;;5014895;28;20156;-76
2021/11/30 05:29:36;;;;;;;1.20;0.50;;;16.60;43.30;;;;;;5028685;28;20076;-75
2021/11/30 05:32:02;;;;;;;1.45;0.77;;;16.70;43.30;;;;;;5015572;28;20046;-75
2021/11/30 05:34:27;;;;;;;1.60;0.50;;;16.70;43.30;;;;;;5015089;28;20052;-73
2021/11/30 05:36:53;;;;;;;1.27;0.70;;;16.70;43.20;;;;;;5029162;28;20049;-74
2021/11/30 05:39:19;;;;;;;2.78;0.80;;;16.60;43.10;;;;;;5028995;28;20069;-76
2021/11/30 05:41:45;;;;;;;0.60;0.50;;;16.60;43.30;;;;;;5028674;28;20369;-77
2021/11/30 05:44:10;;;;;;;0.98;0.80;;;16.60;43.30;;;;;;5026339;28;20235;-76
2021/11/30 05:46:37;;;;;;;1.38;0.60;;;16.70;43.40;;;;;;5031658;28;20075;-76
2021/11/30 05:49:06;;;;;;;2.10;0.68;;;16.60;43.30;;;;;;5032687;28;20072;-76
2021/11/30 05:51:34;;;;;;;1.25;0.77;;;16.60;43.20;;;;;;5032187;28;20038;-77
2021/11/30 05:54:00;;;;;;;5.45;1.00;;;16.60;43.30;;;;;;5032411;28;20428;-74
2021/11/30 05:56:25;;;;;;;1.38;0.50;;;16.60;43.20;;;;;;5030974;28;20104;-77
2021/11/30 05:58:52;;;;;;;1.23;0.80;;;16.60;43.20;;;;;;5032066;28;20477;-77
2021/11/30 06:01:27;;;;;;;1.70;0.80;;;16.60;43.30;;;;;;5032382;28;20042;-76
2021/11/30 06:06:23;;;;;;;1.40;0.70;;;16.60;43.30;;;;;;5029266;28;20064;-76
2021/11/30 06:08:49;;;;;;;1.90;0.82;;;16.60;43.40;;;;;;5022644;28;20045;-76
2021/11/30 06:11:14;;;;;;;5.05;1.40;;;16.60;43.20;;;;;;5026506;28;20075;-77
2021/11/30 06:13:40;;;;;;;2.13;0.95;;;16.60;43.20;;;;;;5031776;28;20073;-77
2021/11/30 06:16:06;;;;;;;2.50;0.80;;;16.60;43.40;;;;;;5031231;28;20041;-76
2021/11/30 06:18:32;;;;;;;1.80;0.77;;;16.60;43.20;;;;;;5026858;28;20046;-73
2021/11/30 06:20:58;;;;;;;1.45;0.82;;;16.70;43.00;;;;;;5015383;28;20046;-77
2021/11/30 06:23:24;;;;;;;1.83;0.73;;;16.80;42.90;;;;;;5028954;28;20041;-79
2021/11/30 06:25:50;;;;;;;1.70;0.70;;;16.90;42.70;;;;;;5031815;28;20037;-79
2021/11/30 06:28:16;;;;;;;1.95;0.95;;;17.00;42.50;;;;;;5031656;28;20057;-79
2021/11/30 06:30:42;;;;;;;2.85;0.77;;;17.10;42.50;;;;;;5031546;28;20053;-79
2021/11/30 06:33:08;;;;;;;1.90;0.90;;;17.20;42.20;;;;;;5030206;28;20390;-80
2021/11/30 06:35:36;;;;;;;2.20;0.70;;;17.30;42.00;;;;;;5030069;28;20060;-73
2021/11/30 06:38:03;;;;;;;2.28;0.80;;;17.40;41.80;;;;;;5019427;28;20053;-76
2021/11/30 06:40:28;;;;;;;3.92;1.02;;;17.60;41.50;;;;;;5031839;28;20045;-76
2021/11/30 06:42:54;;;;;;;1.92;0.90;;;17.70;41.10;;;;;;5013642;28;20053;-76
2021/11/30 06:45:19;;;;;;;1.80;0.73;;;17.80;41.00;;;;;;5030155;28;20074;-76
2021/11/30 06:47:45;;;;;;;3.80;1.08;;;17.90;40.80;;;;;;5030620;28;20405;-75
2021/11/30 06:50:11;;;;;;;3.58;1.00;;;18.00;40.90;;;;;;5031543;28;20053;-76
2021/11/30 06:52:38;;;;;;;5.35;0.88;;;18.00;40.80;;;;;;5016975;28;20058;-76
2021/11/30 06:55:05;;;;;;;4.15;1.00;;;18.20;40.60;;;;;;5031863;28;20428;-77
2021/11/30 06:57:31;;;;;;;4.07;1.00;;;18.20;40.40;;;;;;5030755;28;20045;-77
2021/11/30 07:00:01;;;;;;;0.93;0.75;;;18.30;40.20;;;;;;5030397;28;20064;-79
2021/11/30 07:02:27;;;;;;;1.15;0.63;;;18.40;40.10;;;;;;5031060;28;20041;-74
2021/11/30 07:04:54;;;;;;;2.53;0.98;;;18.40;40.20;;;;;;5029925;28;20115;-77
2021/11/30 07:15:10;;;;;;;2.85;0.82;;;18.70;40.20;;;;;;5011288;28;20057;-79
2021/11/30 07:17:37;;;;;;;2.33;1.05;;;18.60;40.30;;;;;;5009889;28;20081;-74
2021/11/30 07:20:04;;;;;;;1.55;1.10;;;18.60;40.10;;;;;;4993509;28;20052;-77
2021/11/30 07:22:30;;;;;;;2.30;1.25;;;18.70;40.20;;;;;;5014053;28;20628;-83
2021/11/30 07:24:57;;;;;;;2.03;0.93;;;18.60;40.10;;;;;;5017839;28;20120;-79
2021/11/30 07:27:23;;;;;;;4.10;0.90;;;18.70;39.90;;;;;;5024782;28;20468;-77
2021/11/30 07:29:49;;;;;;;2.38;1.08;;;18.70;40.20;;;;;;5015599;28;20045;-76
2021/11/30 07:32:14;;;;;;;4.95;0.90;;;18.70;40.40;;;;;;5009831;28;20046;-77
2021/11/30 07:34:40;;;;;;;3.08;0.98;;;18.70;40.90;;;;;;5018099;28;20120;-76
2021/11/30 07:37:06;;;;;;;1.83;0.85;;;18.70;41.70;;;;;;5028876;28;20061;-76
2021/11/30 07:39:33;;;;;;;2.38;1.00;;;18.60;41.40;;;;;;5030376;28;20553;-77
2021/11/30 07:41:58;;;;;;;4.75;1.60;;;18.70;41.70;;;;;;5029654;28;20109;-76
2021/11/30 07:44:24;;;;;;;2.42;1.20;;;18.60;42.30;;;;;;5012676;28;20124;-77
2021/11/30 07:46:50;;;;;;;11.82;1.98;;;18.60;42.60;;;;;;5029802;28;20128;-76
2021/11/30 07:49:15;;;;;;;4.13;1.40;;;18.60;42.70;;;;;;5028448;28;20519;-76
2021/11/30 07:51:41;;;;;;;3.38;1.55;;;18.60;42.70;;;;;;5029715;28;20041;-76
2021/11/30 07:54:07;;;;;;;5.00;1.67;;;18.60;42.70;;;;;;5029266;28;20076;-77
2021/11/30 07:56:33;;;;;;;4.93;1.48;;;18.60;42.60;;;;;;5029976;28;20116;-77
2021/11/30 07:59:00;;;;;;;3.67;1.38;;;18.60;42.50;;;;;;5029578;28;20041;-77
2021/11/30 08:01:26;;;;;;;4.82;1.45;;;18.70;42.50;;;;;;5026263;28;20395;-75
2021/11/30 08:03:51;;;;;;;3.33;1.45;;;18.70;42.30;;;;;;5012268;28;20080;-76
2021/11/30 08:06:17;;;;;;;3.05;1.30;;;18.70;42.30;;;;;;5013970;28;20041;-76
2021/11/30 08:08:44;;;;;;;4.60;1.15;;;18.80;42.20;;;;;;5008986;28;20126;-76
2021/11/30 08:11:10;;;;;;;3.80;1.27;;;18.80;41.90;;;;;;5015894;28;20606;-75
2021/11/30 08:13:36;;;;;;;4.60;1.67;;;18.90;41.80;;;;;;5017286;28;20052;-76
2021/11/30 08:16:03;;;;;;;3.45;1.50;;;18.90;41.60;;;;;;5009760;28;20037;-75
2021/11/30 08:18:29;;;;;;;2.92;1.27;;;18.90;41.50;;;;;;5010236;28;20457;-77
2021/11/30 08:20:55;;;;;;;4.45;1.52;;;19.00;41.30;;;;;;5009511;28;20125;-77
2021/11/30 08:23:22;;;;;;;4.95;1.70;;;18.90;41.20;;;;;;5019534;28;20572;-77
2021/11/30 08:25:48;;;;;;;5.03;1.40;;;18.90;41.20;;;;;;5020868;28;20053;-77
2021/11/30 08:28:13;;;;;;;4.60;1.10;;;18.90;41.10;;;;;;5016827;28;20057;-77
2021/11/30 08:30:39;;;;;;;3.08;1.38;;;18.90;40.80;;;;;;5010126;28;20045;-77
2021/11/30 08:33:05;;;;;;;3.75;1.50;;;19.00;40.60;;;;;;5013431;28;20132;-77
2021/11/30 08:35:32;;;;;;;3.30;1.35;;;19.10;40.50;;;;;;5034269;28;20063;-76
2021/11/30 08:37:57;;;;;;;5.28;1.63;;;19.00;40.50;;;;;;5028407;28;20858;-78
2021/11/30 08:40:23;;;;;;;5.03;2.10;;;19.00;40.30;;;;;;5029673;28;20080;-78
2021/11/30 08:42:49;;;;;;;3.72;1.55;;;19.00;40.60;;;;;;5028975;28;20056;-77
2021/11/30 08:45:14;;;;;;;4.38;1.25;;;19.00;40.70;;;;;;5029369;28;20049;-77
2021/11/30 08:47:40;;;;;;;5.95;1.27;;;19.00;40.90;;;;;;5010234;28;20048;-77
2021/11/30 08:50:10;;;;;;;4.70;1.23;;;18.90;41.10;;;;;;5011258;28;20045;-76
2021/11/30 08:52:36;;;;;;;4.55;1.48;;;19.00;41.20;;;;;;5028928;28;20046;-77
2021/11/30 08:55:03;;;;;;;5.03;1.40;;;18.90;41.40;;;;;;5029290;28;20079;-77
2021/11/30 08:57:29;;;;;;;5.97;1.73;;;18.90;41.40;;;;;;5027863;28;20537;-74
2021/11/30 08:59:56;;;;;;;7.35;1.73;;;18.90;41.50;;;;;;5016387;28;20120;-77
2021/11/30 09:02:23;;;;;;;4.93;1.42;;;18.80;41.50;;;;;;5028865;28;20116;-77
2021/11/30 09:04:49;;;;;;;5.40;1.70;;;18.80;41.70;;;;;;5028697;28;20042;-78
2021/11/30 09:07:16;;;;;;;4.88;1.40;;;18.80;41.70;;;;;;5029206;28;20124;-77
2021/11/30 09:09:44;;;;;;;4.82;1.60;;;18.80;41.70;;;;;;5012007;28;20089;-83
2021/11/30 09:12:11;;;;;;;5.95;1.73;;;18.80;41.80;;;;;;5000050;28;20053;-72
2021/11/30 09:14:36;;;;;;;5.13;1.50;;;18.50;42.80;;;;;;5029345;28;20107;-71
2021/11/30 09:17:03;;;;;;;7.25;2.20;;;18.40;43.40;;;;;;5028701;28;20097;-71
2021/11/30 09:19:29;;;;;;;13.57;1.63;;;18.20;43.70;;;;;;5016391;28;20432;-71
2021/11/30 09:21:55;;;;;;;6.32;1.33;;;18.20;43.80;;;;;;5030952;28;20045;-71
2021/11/30 09:24:21;;;;;;;8.77;1.83;;;18.20;43.90;;;;;;5032396;28;20103;-82
2021/11/30 09:26:48;;;;;;;7.47;1.77;;;18.20;44.90;;;;;;4961649;28;20059;-75
2021/11/30 09:29:14;;;;;;;10.23;2.20;;;18.70;49.70;;;;;;4940672;28;20058;-73
2021/11/30 09:31:40;;;;;;;6.50;1.95;;;18.30;43.20;;;;;;5008968;28;20536;-73
2021/11/30 09:34:07;;;;;;;5.90;1.75;;;18.30;43.30;;;;;;5007109;28;20038;-73
2021/11/30 09:36:33;;;;;;;9.85;1.83;;;18.20;43.50;;;;;;5015384;28;20041;-73
2021/11/30 09:39:00;;;;;;;6.80;2.03;;;18.20;43.30;;;;;;5005990;28;20082;-72
2021/11/30 09:41:28;;;;;;;6.57;1.83;;;18.30;43.20;;;;;;5000562;28;20046;-74
2021/11/30 09:43:55;;;;;;;10.77;1.90;;;18.20;43.50;;;;;;5003947;28;20809;-73
2021/11/30 09:46:21;;;;;;;9.77;1.60;;;18.10;43.70;;;;;;5024454;28;21025;-73
2021/11/30 09:48:47;;;;;;;10.48;1.88;;;18.00;43.70;;;;;;4992778;28;20484;-73
2021/11/30 09:51:13;;;;;;;6.75;1.75;;;18.00;43.80;;;;;;4997013;28;20125;-73
2021/11/30 09:53:39;;;;;;;4.85;1.80;;;18.00;43.90;;;;;;4993044;28;20074;-73
2021/11/30 09:56:05;;;;;;;7.03;1.83;;;18.00;43.90;;;;;;5024441;28;20093;-75
2021/11/30 09:58:31;;;;;;;6.95;2.10;;;18.00;43.70;;;;;;4992818;28;20084;-73
2021/11/30 10:00:59;;;;;;;5.70;1.70;;;18.10;43.50;;;;;;5000879;28;20447;-76
2021/11/30 10:03:25;;;;;;;6.68;1.70;;;18.10;43.40;;;;;;4992798;28;20100;-73
2021/11/30 10:05:54;;;;;;;5.50;1.75;;;18.10;43.50;;;;;;5007900;28;20495;-77
2021/11/30 10:08:32;;;;;;;6.00;1.83;;;18.00;43.60;;;;;;4995708;28;20497;-73
2021/11/30 10:11:00;;;;;;;6.03;1.90;;;17.90;43.80;;;;;;4999960;28;20082;-74
2021/11/30 10:13:26;;;;;;;9.50;2.28;;;17.90;44.40;;;;;;4991790;28;20909;-73
2021/11/30 10:16:06;;;;;;;5.75;1.90;;;17.80;44.30;;;;;;5024091;28;20058;-77
2021/11/30 10:18:33;;;;;;;6.75;1.65;;;17.80;44.30;;;;;;4992648;28;20465;-74
2021/11/30 10:21:21;;;;;;;9.60;2.42;;;17.90;44.00;;;;;;4994038;28;20092;-74
2021/11/30 10:23:48;;;;;;;16.88;5.03;;;17.90;43.50;;;;;;5011448;28;20486;-73
2021/11/30 10:26:14;;;;;;;19.38;6.32;;;17.90;43.50;;;;;;5043893;28;20149;-75
2021/11/30 10:28:40;;;;;;;25.45;5.90;;;17.90;43.60;;;;;;5004769;28;20054;-73
2021/11/30 10:31:09;;;;;;;20.35;6.78;;;18.00;43.40;;;;;;4999188;28;20064;-74
2021/11/30 10:33:35;;;;;;;15.93;5.75;;;18.00;43.30;;;;;;5026176;28;20053;-74
2021/11/30 10:36:03;;;;;;;21.50;6.10;;;18.10;42.90;;;;;;4958788;28;20046;-72
2021/11/30 10:56:22;;;;;;;20.35;6.68;;;27.10;24.30;;;;;;4885363;27;20557;-75
2021/11/30 10:58:52;;;;;;;17.00;6.75;;;23.50;27.50;;;;;;4969265;28;20477;-75
2021/11/30 11:01:20;;;;;;;23.33;8.63;;;21.80;31.20;;;;;;5020723;28;20808;-75
2021/11/30 11:04:04;;;;;;;26.17;9.13;;;20.70;34.20;;;;;;5023978;28;20041;-75
2021/11/30 11:11:39;;;;;;;38.08;10.90;;;24.30;26.10;;;;;;4904996;27;20470;-72
2021/11/30 11:14:16;;;;;;;41.55;11.20;;;21.90;30.50;;;;;;5029903;28;20386;-71
2021/11/30 11:16:42;;;;;;;38.33;11.52;;;20.50;34.80;;;;;;5066339;28;20053;-71
2021/11/30 11:19:09;;;;;;;48.42;11.32;;;19.60;37.70;;;;;;5066216;28;20389;-71
2021/11/30 11:21:40;;;;;;;28.65;10.43;;;19.20;39.30;;;;;;5057018;28;20053;-70
2021/11/30 11:35:48;;;;;;;29.15;7.55;;;18.50;43.00;;;;;;4991645;27;1292151;-78
2021/11/30 11:38:14;;;;;;;27.75;7.13;;;18.40;43.40;;;;;;5049881;28;20065;-79
2021/11/30 11:40:41;;;;;;;21.58;7.55;;;18.30;43.50;;;;;;5119214;28;20043;-87
2021/11/30 11:43:07;;;;;;;18.38;7.07;;;18.20;43.60;;;;;;5022365;28;20109;-80
2021/11/30 11:45:33;;;;;;;19.75;7.40;;;18.20;44.60;;;;;;5117044;28;20101;-81
2021/11/30 11:48:07;;;;;;;19.15;6.88;;;18.20;44.10;;;;;;5111512;28;20044;-81
2021/11/30 11:51:00;;;;;;;18.85;6.43;;;18.10;44.10;;;;;;5091308;28;20071;-80
2021/11/30 11:53:32;;;;;;;17.35;6.22;;;18.10;44.40;;;;;;5098142;28;20087;-81
2021/11/30 11:56:07;;;;;;;15.25;5.18;;;18.00;44.50;;;;;;5105072;28;20428;-81
2021/11/30 11:58:34;;;;;;;21.60;5.70;;;18.00;44.60;;;;;;5103750;28;20138;-81
2021/11/30 12:01:00;;;;;;;19.23;5.35;;;18.00;44.80;;;;;;5098328;28;20139;-80
2021/11/30 12:03:54;;;;;;;17.48;5.07;;;17.90;45.20;;;;;;5104690;28;20450;-80
2021/11/30 12:06:22;;;;;;;18.83;4.68;;;17.90;45.40;;;;;;5104219;28;20048;-81
2021/11/30 12:09:18;;;;;;;18.23;5.22;;;17.90;45.60;;;;;;5106064;28;20044;-80
2021/11/30 12:11:51;;;;;;;24.65;5.50;;;17.90;45.60;;;;;;5105620;28;20150;-80
2021/11/30 12:14:23;;;;;;;13.60;4.70;;;17.90;45.70;;;;;;5099489;28;20067;-80
2021/11/30 12:17:15;;;;;;;10.75;4.40;;;17.90;45.60;;;;;;5108759;28;20066;-80
2021/11/30 12:19:56;;;;;;;14.45;3.85;;;17.90;45.50;;;;;;5099533;28;20075;-80
2021/11/30 12:22:43;;;;;;;15.05;4.53;;;17.90;45.30;;;;;;5106416;28;20055;-80
2021/11/30 12:25:42;;;;;;;13.95;4.25;;;17.90;45.00;;;;;;5093736;28;20043;-80
2021/11/30 12:28:09;;;;;;;12.60;4.30;;;17.90;44.80;;;;;;5102958;28;20044;-80
2021/11/30 12:30:54;;;;;;;13.90;3.90;;;17.90;44.60;;;;;;5105922;28;20388;-80
2021/11/30 12:33:30;;;;;;;15.38;3.92;;;17.90;44.60;;;;;;5104505;28;20047;-80
2021/11/30 12:36:00;;;;;;;11.50;3.72;;;17.80;44.50;;;;;;5111038;28;20048;-80
2021/11/30 12:38:33;;;;;;;14.55;3.70;;;17.80;44.50;;;;;;5127228;27;20178;-80
2021/11/30 12:41:01;;;;;;;10.30;3.67;;;17.80;44.50;;;;;;5117262;27;20043;-80
2021/11/30 12:43:31;;;;;;;10.87;3.90;;;17.80;44.50;;;;;;5108694;28;20040;-80
2021/11/30 12:46:03;;;;;;;13.88;3.47;;;17.80;44.50;;;;;;5098448;28;20051;-80
2021/11/30 12:48:36;;;;;;;7.70;3.30;;;17.80;44.50;;;;;;5092553;28;20504;-80
2021/11/30 12:51:22;;;;;;;9.55;3.28;;;17.80;44.50;;;;;;5103922;28;20044;-81
2021/11/30 12:53:49;;;;;;;9.57;2.95;;;17.70;44.40;;;;;;5108583;28;20043;-80
2021/11/30 12:56:52;;;;;;;9.93;3.75;;;17.70;44.50;;;;;;5088833;28;20071;-80
2021/11/30 12:59:36;;;;;;;8.55;3.13;;;17.70;44.40;;;;;;5093551;28;20044;-80
2021/11/30 13:02:18;;;;;;;12.50;3.53;;;17.70;44.30;;;;;;5103622;28;20105;-80
2021/11/30 13:04:45;;;;;;;9.93;3.40;;;17.70;44.40;;;;;;5097972;28;20044;-81
2021/11/30 13:07:13;;;;;;;11.27;2.40;;;17.70;44.50;;;;;;5086646;28;20047;-80
2021/11/30 13:09:48;;;;;;;8.98;2.92;;;17.60;44.70;;;;;;5098471;28;20091;-80
2021/11/30 13:12:25;;;;;;;9.55;2.95;;;17.60;44.50;;;;;;5104716;28;20140;-80
2021/11/30 13:14:52;;;;;;;9.45;2.95;;;17.60;44.70;;;;;;5104421;28;20494;-80
2021/11/30 13:17:20;;;;;;;7.18;2.92;;;17.60;44.70;;;;;;5091329;28;20058;-80
2021/11/30 13:19:50;;;;;;;7.63;2.97;;;17.60;44.70;;;;;;5103183;28;20597;-80
2021/11/30 13:22:17;;;;;;;6.32;2.58;;;17.60;44.60;;;;;;5098407;28;20481;-80
2021/11/30 13:24:47;;;;;;;8.43;2.95;;;17.60;44.40;;;;;;5093016;28;20123;-80
2021/11/30 13:27:19;;;;;;;9.07;2.13;;;17.60;44.60;;;;;;5083972;28;20180;-80
2021/11/30 13:30:14;;;;;;;11.40;2.88;;;17.60;44.30;;;;;;5092424;28;20051;-80
2021/11/30 13:32:43;;;;;;;10.43;2.60;;;17.60;44.30;;;;;;5078354;28;20052;-80
2021/11/30 13:35:26;;;;;;;8.30;2.90;;;17.60;44.40;;;;;;5093294;28;20092;-80
2021/11/30 13:37:51;;;;;;;8.27;2.60;;;17.60;44.30;;;;;;5090148;28;20048;-80
2021/11/30 13:40:37;;;;;;;6.82;2.50;;;17.60;44.50;;;;;;5100249;28;20047;-80
2021/11/30 13:43:07;;;;;;;6.90;2.35;;;17.60;44.60;;;;;;5084591;28;20079;-80
2021/11/30 13:45:38;;;;;;;6.47;2.30;;;17.50;44.70;;;;;;5095431;28;20476;-80
2021/11/30 13:48:04;;;;;;;7.50;2.50;;;17.60;44.90;;;;;;5093507;28;20046;-80
2021/11/30 13:50:36;;;;;;;4.28;1.92;;;17.60;45.00;;;;;;5089527;28;20047;-80
2021/11/30 13:53:18;;;;;;;5.40;1.83;;;17.60;45.30;;;;;;5094403;28;20059;-80
2021/11/30 13:55:47;;;;;;;5.70;2.30;;;17.50;45.30;;;;;;5089081;28;20039;-80
2021/11/30 13:58:17;;;;;;;4.72;2.28;;;17.50;45.50;;;;;;5108418;28;20039;-80
2021/11/30 14:01:01;;;;;;;5.93;2.28;;;17.50;45.60;;;;;;5093952;28;20055;-80
2021/11/30 14:03:42;;;;;;;6.43;2.20;;;17.50;45.60;;;;;;5077690;28;20380;-80
2021/11/30 14:06:21;;;;;;;5.35;2.05;;;17.40;45.50;;;;;;5094045;28;20478;-80
2021/11/30 14:08:47;;;;;;;4.38;2.05;;;17.40;45.50;;;;;;5090634;28;20080;-80
2021/11/30 14:11:14;;;;;;;4.95;2.08;;;17.40;45.50;;;;;;5097497;28;20074;-80